sensor_id;sensor_type;location;lat;lon;timestamp;pressure;altitude;pressure_sealevel;temperature;humidity
56414;BME280;42318;48.452;19.526;2022-07-29T00:04:10;98412.91;;;24.37;47.29
56414;BME280;42318;48.452;19.526;2022-07-29T00:11:41;98410.47;;;24.36;47.16
56414;BME280;42318;48.452;19.526;2022-07-29T00:19:13;98413.72;;;24.38;47.44
56414;BME280;42318;48.452;19.526;2022-07-29T00:26:43;98411.03;;;24.33;47.91
56414;BME280;42318;48.452;19.526;2022-07-29T00:34:14;98409.16;;;24.28;48.12
56414;BME280;42318;48.452;19.526;2022-07-29T00:42:04;98400.63;;;24.25;48.09
56414;BME280;42318;48.452;19.526;2022-07-29T00:49:35;98405.59;;;24.23;48.15
56414;BME280;42318;48.452;19.526;2022-07-29T00:57:07;98404.75;;;24.22;47.83
56414;BME280;42318;48.452;19.526;2022-07-29T01:04:38;98405.59;;;24.23;47.78
56414;BME280;42318;48.452;19.526;2022-07-29T01:12:10;98401.25;;;24.17;47.91
56414;BME280;42318;48.452;19.526;2022-07-29T01:19:45;98410.28;;;24.17;48.07
56414;BME280;42318;48.452;19.526;2022-07-29T01:27:51;98396.34;;;24.13;48.10
56414;BME280;42318;48.452;19.526;2022-07-29T01:35:26;98394.72;;;24.12;48.18
56414;BME280;42318;48.452;19.526;2022-07-29T01:43:08;98387.59;;;24.11;48.01
56414;BME280;42318;48.452;19.526;2022-07-29T01:50:46;98392.25;;;24.11;47.92
56414;BME280;42318;48.452;19.526;2022-07-29T01:58:19;98384.09;;;24.06;47.93
56414;BME280;42318;48.452;19.526;2022-07-29T02:05:52;98384.34;;;24.09;47.95
56414;BME280;42318;48.452;19.526;2022-07-29T02:13:24;98385.72;;;24.07;48.14
56414;BME280;42318;48.452;19.526;2022-07-29T02:20:58;98384.91;;;24.06;48.32
56414;BME280;42318;48.452;19.526;2022-07-29T02:28:30;98387.09;;;24.04;48.43
56414;BME280;42318;48.452;19.526;2022-07-29T02:36:03;98388.81;;;23.95;48.09
56414;BME280;42318;48.452;19.526;2022-07-29T02:43:35;98394.50;;;24.04;48.02
56414;BME280;42318;48.452;19.526;2022-07-29T02:51:07;98385.47;;;24.03;47.85
56414;BME280;42318;48.452;19.526;2022-07-29T02:58:41;98391.81;;;23.99;47.91
56414;BME280;42318;48.452;19.526;2022-07-29T03:06:14;98379.75;;;24.00;48.10
56414;BME280;42318;48.452;19.526;2022-07-29T03:13:46;98388.25;;;23.98;48.20
56414;BME280;42318;48.452;19.526;2022-07-29T03:21:17;98386.09;;;23.95;47.88
56414;BME280;42318;48.452;19.526;2022-07-29T03:28:47;98387.19;;;23.94;47.89
56414;BME280;42318;48.452;19.526;2022-07-29T03:36:18;98388.00;;;23.95;47.95
56414;BME280;42318;48.452;19.526;2022-07-29T03:43:49;98394.28;;;23.95;47.73
56414;BME280;42318;48.452;19.526;2022-07-29T03:51:21;98374.06;;;23.91;48.13
56414;BME280;42318;48.452;19.526;2022-07-29T03:58:53;98384.72;;;23.93;47.87
56414;BME280;42318;48.452;19.526;2022-07-29T04:06:23;98387.47;;;23.93;48.30
56414;BME280;42318;48.452;19.526;2022-07-29T04:13:56;98381.22;;;23.87;47.96
56414;BME280;42318;48.452;19.526;2022-07-29T04:21:26;98386.41;;;23.89;48.39
56414;BME280;42318;48.452;19.526;2022-07-29T04:28:57;98385.03;;;23.91;48.34
56414;BME280;42318;48.452;19.526;2022-07-29T04:36:28;98376.81;;;23.91;48.48
56414;BME280;42318;48.452;19.526;2022-07-29T04:43:59;98377.63;;;23.92;48.89
56414;BME280;42318;48.452;19.526;2022-07-29T04:51:31;98382.28;;;23.91;48.62
56414;BME280;42318;48.452;19.526;2022-07-29T04:59:01;98382.28;;;23.91;48.92
56414;BME280;42318;48.452;19.526;2022-07-29T05:06:32;98385.56;;;23.93;48.55
56414;BME280;42318;48.452;19.526;2022-07-29T05:14:03;98377.38;;;23.88;48.85
56414;BME280;42318;48.452;19.526;2022-07-29T05:21:33;98386.38;;;23.94;48.87
56414;BME280;42318;48.452;19.526;2022-07-29T05:29:04;98384.72;;;23.93;48.81
56414;BME280;42318;48.452;19.526;2022-07-29T05:36:35;98383.03;;;24.02;48.68
56414;BME280;42318;48.452;19.526;2022-07-29T05:44:06;98384.94;;;24.01;48.91
56414;BME280;42318;48.452;19.526;2022-07-29T05:51:37;98379.75;;;24.00;49.35
56414;BME280;42318;48.452;19.526;2022-07-29T05:59:07;98372.41;;;23.95;49.78
56414;BME280;42318;48.452;19.526;2022-07-29T06:06:38;98382.75;;;24.03;49.42
56414;BME280;42318;48.452;19.526;2022-07-29T06:14:09;98379.72;;;24.05;49.41
56414;BME280;42318;48.452;19.526;2022-07-29T06:21:43;98378.31;;;24.07;49.21
56414;BME280;42318;48.452;19.526;2022-07-29T06:29:14;98383.22;;;24.10;48.92
56414;BME280;42318;48.452;19.526;2022-07-29T06:36:45;98391.69;;;24.14;48.91
56414;BME280;42318;48.452;19.526;2022-07-29T06:44:17;98386.50;;;24.12;48.78
56414;BME280;42318;48.452;19.526;2022-07-29T06:51:48;98381.56;;;24.15;48.74
56414;BME280;42318;48.452;19.526;2022-07-29T06:59:19;98382.91;;;24.17;48.04
56414;BME280;42318;48.452;19.526;2022-07-29T07:06:49;98371.72;;;24.13;47.34
56414;BME280;42318;48.452;19.526;2022-07-29T07:14:20;98380.16;;;24.17;47.52
56414;BME280;42318;48.452;19.526;2022-07-29T07:21:52;98384.53;;;24.18;46.69
56414;BME280;42318;48.452;19.526;2022-07-29T07:29:23;98378.78;;;24.20;46.56
56414;BME280;42318;48.452;19.526;2022-07-29T07:36:54;98379.59;;;24.20;46.62
56414;BME280;42318;48.452;19.526;2022-07-29T07:44:24;98382.03;;;24.22;46.26
56414;BME280;42318;48.452;19.526;2022-07-29T07:51:55;98376.31;;;24.18;46.02
56414;BME280;42318;48.452;19.526;2022-07-29T07:59:26;98388.06;;;24.24;46.42
56414;BME280;42318;48.452;19.526;2022-07-29T08:06:58;98373.53;;;24.23;46.33
56414;BME280;42318;48.452;19.526;2022-07-29T08:14:30;98364.81;;;24.21;46.14
56414;BME280;42318;48.452;19.526;2022-07-29T08:22:01;98370.53;;;24.25;46.34
56414;BME280;42318;48.452;19.526;2022-07-29T08:29:31;98359.63;;;24.20;46.92
56414;BME280;42318;48.452;19.526;2022-07-29T08:37:02;98372.16;;;24.26;47.43
56414;BME280;42318;48.452;19.526;2022-07-29T08:44:33;98364.50;;;24.28;46.88
56414;BME280;42318;48.452;19.526;2022-07-29T08:52:04;98365.31;;;24.33;48.74
56414;BME280;42318;48.452;19.526;2022-07-29T08:59:38;98362.81;;;24.37;49.14
56414;BME280;42318;48.452;19.526;2022-07-29T09:07:14;98354.31;;;24.38;50.18
56414;BME280;42318;48.452;19.526;2022-07-29T09:14:45;98347.44;;;24.41;50.12
56414;BME280;42318;48.452;19.526;2022-07-29T09:22:28;98357.00;;;24.43;49.78
56414;BME280;42318;48.452;19.526;2022-07-29T09:30:05;98355.88;;;24.45;49.78
56414;BME280;42318;48.452;19.526;2022-07-29T09:37:36;98342.19;;;24.45;49.07
56414;BME280;42318;48.452;19.526;2022-07-29T09:45:07;98334.50;;;24.47;49.01
56414;BME280;42318;48.452;19.526;2022-07-29T09:52:50;98336.97;;;24.48;48.92
56414;BME280;42318;48.452;19.526;2022-07-29T10:00:21;98322.75;;;24.46;49.11
56414;BME280;42318;48.452;19.526;2022-07-29T10:07:55;98321.06;;;24.50;49.10
56414;BME280;42318;48.452;19.526;2022-07-29T10:15:29;98321.06;;;24.50;48.59
56414;BME280;42318;48.452;19.526;2022-07-29T10:23:00;98304.31;;;24.52;48.58
56414;BME280;42318;48.452;19.526;2022-07-29T10:30:30;98299.66;;;24.52;48.65
56414;BME280;42318;48.452;19.526;2022-07-29T10:38:30;98295.00;;;24.53;48.58
56414;BME280;42318;48.452;19.526;2022-07-29T10:46:05;98279.28;;;24.63;47.96
56414;BME280;42318;48.452;19.526;2022-07-29T10:53:52;98264.38;;;24.74;48.18
56414;BME280;42318;48.452;19.526;2022-07-29T11:01:30;98260.97;;;24.83;47.74
56414;BME280;42318;48.452;19.526;2022-07-29T11:09:20;98268.56;;;24.91;47.79
56414;BME280;42318;48.452;19.526;2022-07-29T11:17:00;98258.88;;;24.98;47.45
56414;BME280;42318;48.452;19.526;2022-07-29T11:24:33;98235.25;;;25.02;47.40
56414;BME280;42318;48.452;19.526;2022-07-29T11:32:09;98227.50;;;25.10;47.46
56414;BME280;42318;48.452;19.526;2022-07-29T11:47:19;98211.81;;;25.15;47.54
56414;BME280;42318;48.452;19.526;2022-07-29T11:54:50;98189.31;;;25.13;47.36
56414;BME280;42318;48.452;19.526;2022-07-29T12:02:21;98193.66;;;25.19;47.18
56414;BME280;42318;48.452;19.526;2022-07-29T12:09:53;98184.53;;;25.24;47.34
56414;BME280;42318;48.452;19.526;2022-07-29T12:17:33;98184.75;;;25.27;47.63
56414;BME280;42318;48.452;19.526;2022-07-29T12:25:07;98170.53;;;25.25;47.16
56414;BME280;42318;48.452;19.526;2022-07-29T12:32:47;98155.56;;;25.18;47.14
56414;BME280;42318;48.452;19.526;2022-07-29T12:40:18;98153.94;;;25.17;47.08
56414;BME280;42318;48.452;19.526;2022-07-29T12:47:51;98158.06;;;25.14;46.96
56414;BME280;42318;48.452;19.526;2022-07-29T12:55:58;98144.94;;;25.11;47.15
56414;BME280;42318;48.452;19.526;2022-07-29T13:03:54;98152.66;;;25.09;46.96
56414;BME280;42318;48.452;19.526;2022-07-29T13:11:31;98141.78;;;25.04;47.26
56414;BME280;42318;48.452;19.526;2022-07-29T13:19:11;98152.22;;;25.02;47.29
56414;BME280;42318;48.452;19.526;2022-07-29T13:26:42;98146.22;;;25.00;47.68
56414;BME280;42318;48.452;19.526;2022-07-29T13:34:13;98135.56;;;24.98;47.36
56414;BME280;42318;48.452;19.526;2022-07-29T13:41:43;98138.56;;;24.97;47.54
56414;BME280;42318;48.452;19.526;2022-07-29T13:49:14;98162.72;;;24.95;47.83
56414;BME280;42318;48.452;19.526;2022-07-29T13:56:45;98208.19;;;24.96;47.57
56414;BME280;42318;48.452;19.526;2022-07-29T14:04:16;98223.59;;;24.92;47.89
56414;BME280;42318;48.452;19.526;2022-07-29T14:11:47;98228.25;;;24.91;48.39
56414;BME280;42318;48.452;19.526;2022-07-29T14:19:20;98197.88;;;24.88;48.16
56414;BME280;42318;48.452;19.526;2022-07-29T14:26:50;98183.91;;;24.89;48.04
56414;BME280;42318;48.452;19.526;2022-07-29T14:34:21;98184.72;;;24.90;47.83
56414;BME280;42318;48.452;19.526;2022-07-29T14:41:52;98203.31;;;24.93;48.19
56414;BME280;42318;48.452;19.526;2022-07-29T14:49:23;98196.19;;;24.92;48.17
56414;BME280;42318;48.452;19.526;2022-07-29T14:56:54;98194.03;;;24.89;48.16
56414;BME280;42318;48.452;19.526;2022-07-29T15:04:27;98174.56;;;24.90;48.23
56414;BME280;42318;48.452;19.526;2022-07-29T15:11:58;98161.66;;;24.91;47.84
56414;BME280;42318;48.452;19.526;2022-07-29T15:19:29;98153.44;;;24.91;48.07
56414;BME280;42318;48.452;19.526;2022-07-29T15:26:59;98150.72;;;24.91;47.86
56414;BME280;42318;48.452;19.526;2022-07-29T15:34:30;98152.63;;;24.90;48.34
56414;BME280;42318;48.452;19.526;2022-07-29T15:42:02;98186.13;;;24.87;48.35
56414;BME280;42318;48.452;19.526;2022-07-29T15:49:34;98207.22;;;24.87;48.39
56414;BME280;42318;48.452;19.526;2022-07-29T15:57:06;98214.91;;;24.85;48.57
56414;BME280;42318;48.452;19.526;2022-07-29T16:04:37;98223.66;;;24.87;48.18
56414;BME280;42318;48.452;19.526;2022-07-29T16:12:08;98208.34;;;24.86;48.17
56414;BME280;42318;48.452;19.526;2022-07-29T16:19:39;98219.28;;;24.86;48.47
56414;BME280;42318;48.452;19.526;2022-07-29T16:27:10;98221.75;;;24.87;48.11
56414;BME280;42318;48.452;19.526;2022-07-29T16:34:41;98197.88;;;24.88;48.05
56414;BME280;42318;48.452;19.526;2022-07-29T16:42:11;98193.00;;;24.85;48.31
56414;BME280;42318;48.452;19.526;2022-07-29T16:49:42;98183.38;;;24.87;48.09
56414;BME280;42318;48.452;19.526;2022-07-29T16:57:13;98172.63;;;24.72;55.56
56414;BME280;42318;48.452;19.526;2022-07-29T17:04:43;98154.28;;;24.49;59.01
56414;BME280;42318;48.452;19.526;2022-07-29T17:12:14;98149.06;;;24.23;60.98
56414;BME280;42318;48.452;19.526;2022-07-29T17:19:45;98145.97;;;24.06;61.39
56414;BME280;42318;48.452;19.526;2022-07-29T17:27:16;98148.06;;;23.90;62.03
56414;BME280;42318;48.452;19.526;2022-07-29T17:34:47;98151.69;;;23.86;61.21
56414;BME280;42318;48.452;19.526;2022-07-29T17:42:17;98145.63;;;23.89;60.63
56414;BME280;42318;48.452;19.526;2022-07-29T17:49:48;98144.84;;;23.83;61.33
56414;BME280;42318;48.452;19.526;2022-07-29T17:57:19;98140.22;;;23.78;60.99
56414;BME280;42318;48.452;19.526;2022-07-29T18:04:50;98146.00;;;23.77;60.88
56414;BME280;42318;48.452;19.526;2022-07-29T18:12:20;98143.06;;;23.68;60.69
56414;BME280;42318;48.452;19.526;2022-07-29T18:19:51;98139.34;;;23.54;61.14
56414;BME280;42318;48.452;19.526;2022-07-29T18:27:22;98146.50;;;23.50;61.36
56414;BME280;42318;48.452;19.526;2022-07-29T18:34:55;98179.81;;;23.57;60.69
56414;BME280;42318;48.452;19.526;2022-07-29T18:42:26;98192.63;;;23.62;59.91
56414;BME280;42318;48.452;19.526;2022-07-29T18:49:57;98195.94;;;23.59;60.29
56414;BME280;42318;48.452;19.526;2022-07-29T18:57:27;98183.09;;;23.59;60.44
56414;BME280;42318;48.452;19.526;2022-07-29T19:04:58;98202.75;;;23.61;60.36
56414;BME280;42318;48.452;19.526;2022-07-29T19:12:29;98245.38;;;23.67;60.14
56414;BME280;42318;48.452;19.526;2022-07-29T19:20:00;98250.03;;;23.67;60.53
56414;BME280;42318;48.452;19.526;2022-07-29T19:27:31;98248.91;;;23.68;60.80
56414;BME280;42318;48.452;19.526;2022-07-29T19:35:03;98243.75;;;23.66;61.30
56414;BME280;42318;48.452;19.526;2022-07-29T19:42:52;98256.06;;;23.64;61.05
56414;BME280;42318;48.452;19.526;2022-07-29T19:50:24;98304.03;;;23.46;61.63
56414;BME280;42318;48.452;19.526;2022-07-29T19:57:55;98315.25;;;23.39;61.16
56414;BME280;42318;48.452;19.526;2022-07-29T20:05:28;98317.66;;;23.51;61.37
56414;BME280;42318;48.452;19.526;2022-07-29T20:12:59;98311.09;;;23.52;62.01
56414;BME280;42318;48.452;19.526;2022-07-29T20:20:30;98343.72;;;23.33;61.02
56414;BME280;42318;48.452;19.526;2022-07-29T20:28:00;98378.94;;;23.45;61.57
56414;BME280;42318;48.452;19.526;2022-07-29T20:35:31;98397.22;;;23.60;60.86
56414;BME280;42318;48.452;19.526;2022-07-29T20:43:02;98362.72;;;23.69;60.33
56414;BME280;42318;48.452;19.526;2022-07-29T20:50:33;98359.88;;;23.84;60.40
56414;BME280;42318;48.452;19.526;2022-07-29T20:58:04;98357.38;;;23.93;60.87
56414;BME280;42318;48.452;19.526;2022-07-29T21:05:35;98377.94;;;23.80;60.98
56414;BME280;42318;48.452;19.526;2022-07-29T21:13:06;98364.22;;;23.90;60.07
56414;BME280;42318;48.452;19.526;2022-07-29T21:20:37;98344.00;;;23.86;60.12
56414;BME280;42318;48.452;19.526;2022-07-29T21:28:07;98341.72;;;23.98;60.07
56414;BME280;42318;48.452;19.526;2022-07-29T21:35:56;98314.06;;;24.00;59.82
56414;BME280;42318;48.452;19.526;2022-07-29T21:43:27;98301.97;;;24.06;59.71
56414;BME280;42318;48.452;19.526;2022-07-29T21:50:58;98294.53;;;24.11;59.01
56414;BME280;42318;48.452;19.526;2022-07-29T21:58:29;98292.56;;;24.17;58.69
56414;BME280;42318;48.452;19.526;2022-07-29T22:05:59;98299.97;;;24.17;58.88
56414;BME280;42318;48.452;19.526;2022-07-29T22:13:30;98303.00;;;24.15;59.04
56414;BME280;42318;48.452;19.526;2022-07-29T22:21:01;98285.81;;;24.09;58.88
56414;BME280;42318;48.452;19.526;2022-07-29T22:28:31;98281.81;;;23.97;59.34
56414;BME280;42318;48.452;19.526;2022-07-29T22:36:02;98282.66;;;23.92;59.36
56414;BME280;42318;48.452;19.526;2022-07-29T22:43:33;98281.84;;;23.92;59.04
56414;BME280;42318;48.452;19.526;2022-07-29T22:51:04;98287.03;;;23.93;58.96
56414;BME280;42318;48.452;19.526;2022-07-29T22:58:35;98292.50;;;23.93;58.34
56414;BME280;42318;48.452;19.526;2022-07-29T23:06:05;98279.34;;;23.95;58.34
56414;BME280;42318;48.452;19.526;2022-07-29T23:13:36;98266.22;;;23.97;58.39
56414;BME280;42318;48.452;19.526;2022-07-29T23:21:07;98254.16;;;23.98;58.31
56414;BME280;42318;48.452;19.526;2022-07-29T23:28:38;98255.78;;;23.99;58.24
56414;BME280;42318;48.452;19.526;2022-07-29T23:36:09;98253.06;;;23.99;57.94
56414;BME280;42318;48.452;19.526;2022-07-29T23:43:40;98235.81;;;23.99;57.83
56414;BME280;42318;48.452;19.526;2022-07-29T23:51:10;98236.09;;;23.97;57.92
56414;BME280;42318;48.452;19.526;2022-07-29T23:58:41;98224.06;;;23.98;58.04
